Time;durP1;ratioP1;P1;durP2;ratioP2;P2;SDS_P1;SDS_P2;PMS_P1;PMS_P2;Temp;Humidity;BMP_temperature;BMP_pressure;BME280_temperature;BME280_humidity;BME280_pressure;Samples;Min_cycle;Max_cycle;Signal;HPM_P1;HPM_P2
2021/01/22 00:01:28;;;;;;;5.85;2.10;;;4.90;91.40;;;;;;5055280;28;20036;-77
2021/01/22 00:03:54;;;;;;;3.63;2.10;;;4.90;91.40;;;;;;5047316;28;20106;-77
2021/01/22 00:06:19;;;;;;;3.88;1.83;;;4.90;91.40;;;;;;5049026;28;20033;-77
2021/01/22 00:08:45;;;;;;;5.05;2.00;;;5.00;91.40;;;;;;5049729;28;20029;-77
2021/01/22 00:11:11;;;;;;;3.33;1.65;;;5.00;91.30;;;;;;5044447;28;20504;-77
2021/01/22 00:13:36;;;;;;;6.15;2.50;;;5.00;91.30;;;;;;5049589;28;20033;-78
2021/01/22 00:16:03;;;;;;;8.43;2.03;;;5.00;91.30;;;;;;5049317;28;20586;-78
2021/01/22 00:18:28;;;;;;;6.90;1.90;;;5.00;91.20;;;;;;5051372;28;20056;-77
2021/01/22 00:20:54;;;;;;;2.53;1.63;;;5.00;91.20;;;;;;5051408;28;20033;-77
2021/01/22 00:23:20;;;;;;;2.20;1.10;;;5.00;91.10;;;;;;5056213;28;21200;-77
2021/01/22 00:25:45;;;;;;;5.50;1.75;;;4.90;91.00;;;;;;5048628;28;20066;-77
2021/01/22 00:28:11;;;;;;;5.05;2.33;;;5.00;91.10;;;;;;5050820;28;20468;-77
2021/01/22 00:30:37;;;;;;;5.82;1.80;;;5.00;91.10;;;;;;5050848;28;20114;-77
2021/01/22 00:33:03;;;;;;;8.57;2.47;;;5.00;91.10;;;;;;5051572;28;20028;-77
2021/01/22 00:35:28;;;;;;;7.38;2.88;;;4.90;91.20;;;;;;5054184;28;20037;-77
2021/01/22 00:37:54;;;;;;;5.80;2.95;;;4.90;91.30;;;;;;5046492;28;20028;-77
2021/01/22 00:40:20;;;;;;;8.98;3.75;;;5.00;91.40;;;;;;5048258;28;20037;-77
2021/01/22 00:42:45;;;;;;;9.10;5.40;;;5.00;91.40;;;;;;5051283;28;20036;-77
2021/01/22 00:45:11;;;;;;;9.98;5.43;;;5.00;91.40;;;;;;5056074;28;20041;-77
2021/01/22 00:47:37;;;;;;;10.13;4.10;;;5.00;91.10;;;;;;5046634;28;20109;-77
2021/01/22 00:50:04;;;;;;;6.15;2.38;;;5.00;91.20;;;;;;5053569;28;20037;-78
2021/01/22 00:52:29;;;;;;;5.75;2.45;;;5.00;91.00;;;;;;5049224;28;20039;-77
2021/01/22 00:54:55;;;;;;;9.13;2.33;;;5.00;90.90;;;;;;5047464;28;20037;-77
2021/01/22 00:57:21;;;;;;;8.40;2.53;;;4.90;90.90;;;;;;5051755;28;20099;-77
2021/01/22 00:59:47;;;;;;;9.45;2.60;;;4.90;90.90;;;;;;5046790;28;20487;-77
2021/01/22 01:02:13;;;;;;;6.40;2.80;;;4.90;90.90;;;;;;5047507;28;20037;-76
2021/01/22 01:04:38;;;;;;;6.50;2.55;;;4.80;90.90;;;;;;5049721;28;20044;-77
2021/01/22 01:07:04;;;;;;;8.30;2.35;;;4.70;91.20;;;;;;5050913;28;20033;-77
2021/01/22 01:09:30;;;;;;;5.03;2.10;;;4.70;91.30;;;;;;5051114;28;20048;-77
2021/01/22 01:11:55;;;;;;;5.72;2.20;;;4.60;91.40;;;;;;5048565;28;20041;-77
2021/01/22 01:14:21;;;;;;;6.35;2.50;;;4.60;91.60;;;;;;5047969;28;20033;-77
2021/01/22 01:16:46;;;;;;;6.63;2.40;;;4.60;91.60;;;;;;5049734;28;20033;-77
2021/01/22 01:19:12;;;;;;;5.07;2.55;;;4.60;91.70;;;;;;5052797;28;20028;-77
2021/01/22 01:21:38;;;;;;;6.47;2.70;;;4.60;91.80;;;;;;5043632;28;20160;-77
2021/01/22 01:24:04;;;;;;;5.95;2.67;;;4.60;91.80;;;;;;5048484;28;20052;-77
2021/01/22 01:26:29;;;;;;;5.03;2.80;;;4.70;91.60;;;;;;5048408;28;20125;-78
2021/01/22 01:28:55;;;;;;;5.55;2.42;;;4.70;91.60;;;;;;5048362;28;20094;-77
2021/01/22 01:31:21;;;;;;;7.15;2.70;;;4.70;91.70;;;;;;5047981;28;20531;-77
2021/01/22 01:33:46;;;;;;;6.30;2.63;;;4.70;91.60;;;;;;5043279;28;20124;-77
2021/01/22 01:36:12;;;;;;;5.70;2.67;;;4.70;91.60;;;;;;5048002;28;20033;-77
2021/01/22 01:38:38;;;;;;;8.13;2.88;;;4.80;91.50;;;;;;5057613;28;20075;-77
2021/01/22 01:41:04;;;;;;;8.55;3.17;;;4.80;91.50;;;;;;5052308;28;20107;-77
2021/01/22 01:43:30;;;;;;;7.32;3.00;;;4.80;91.40;;;;;;5042165;28;20029;-77
2021/01/22 01:45:56;;;;;;;7.40;3.10;;;4.80;91.40;;;;;;5052635;28;20051;-77
2021/01/22 01:48:21;;;;;;;9.40;3.33;;;4.80;91.30;;;;;;5049095;28;20339;-77
2021/01/22 01:50:47;;;;;;;8.65;3.47;;;4.80;91.30;;;;;;5050786;28;20053;-77
2021/01/22 01:53:13;;;;;;;7.90;3.63;;;4.60;91.30;;;;;;5046562;28;20025;-77
2021/01/22 01:55:40;;;;;;;8.88;3.80;;;4.60;91.40;;;;;;5048503;28;20442;-77
2021/01/22 01:58:06;;;;;;;7.30;3.25;;;4.60;91.50;;;;;;5043262;28;20036;-76
2021/01/22 02:00:32;;;;;;;12.07;3.97;;;4.60;91.50;;;;;;5045415;28;20442;-77
2021/01/22 02:02:57;;;;;;;9.02;3.67;;;4.60;91.60;;;;;;5051757;28;20078;-77
2021/01/22 02:05:23;;;;;;;9.30;4.07;;;4.60;91.60;;;;;;5045823;28;20044;-77
2021/01/22 02:07:49;;;;;;;9.15;3.95;;;4.50;91.40;;;;;;5049429;28;20082;-77
2021/01/22 02:10:15;;;;;;;8.55;4.03;;;4.40;91.40;;;;;;5046873;28;20052;-77
2021/01/22 02:12:41;;;;;;;7.60;3.88;;;4.40;91.60;;;;;;5043266;28;20438;-76
2021/01/22 02:15:10;;;;;;;8.43;4.10;;;4.40;91.70;;;;;;5044298;28;20037;-77
2021/01/22 02:17:36;;;;;;;9.80;3.67;;;4.30;91.70;;;;;;5044050;28;20032;-77
2021/01/22 02:20:23;;;;;;;8.55;3.42;;;4.30;91.70;;;;;;5045924;28;20056;-77
2021/01/22 02:22:53;;;;;;;8.95;3.80;;;4.30;91.60;;;;;;5045641;28;20361;-77
2021/01/22 02:25:25;;;;;;;9.65;3.70;;;4.20;91.70;;;;;;5047751;28;20043;-77
2021/01/22 02:27:51;;;;;;;8.82;3.30;;;4.20;91.70;;;;;;5049120;28;20036;-77
2021/01/22 02:30:17;;;;;;;8.60;3.30;;;4.10;91.70;;;;;;5046145;28;20095;-77
2021/01/22 02:32:45;;;;;;;10.88;3.30;;;4.20;91.80;;;;;;5048278;28;20420;-77
2021/01/22 02:35:12;;;;;;;9.27;3.58;;;4.10;91.80;;;;;;5035712;28;20049;-77
2021/01/22 02:37:40;;;;;;;7.47;3.10;;;4.10;92.00;;;;;;5043319;28;20098;-77
2021/01/22 02:40:08;;;;;;;8.25;3.15;;;4.10;92.00;;;;;;5065829;28;20103;-77
2021/01/22 02:42:37;;;;;;;11.02;3.30;;;4.10;91.90;;;;;;5049010;28;20045;-77
2021/01/22 02:45:04;;;;;;;7.85;3.50;;;4.10;92.00;;;;;;5045902;28;20173;-77
2021/01/22 02:47:31;;;;;;;6.88;2.78;;;4.20;92.00;;;;;;5046452;28;20044;-77
2021/01/22 02:49:56;;;;;;;9.07;3.00;;;4.20;91.90;;;;;;5051286;28;20033;-77
2021/01/22 02:52:22;;;;;;;9.25;3.50;;;4.10;91.90;;;;;;5047892;28;20063;-77
2021/01/22 02:54:51;;;;;;;5.80;3.17;;;4.10;91.90;;;;;;5049089;28;20041;-77
2021/01/22 02:57:38;;;;;;;10.20;2.90;;;4.10;91.80;;;;;;5045693;28;20041;-76
2021/01/22 03:00:31;;;;;;;9.55;3.03;;;4.10;91.90;;;;;;5042557;28;20076;-77
2021/01/22 03:03:32;;;;;;;7.38;3.05;;;4.10;91.90;;;;;;5044312;28;20041;-77
2021/01/22 03:05:59;;;;;;;8.50;3.22;;;4.10;91.90;;;;;;5046130;28;20044;-77
2021/01/22 03:08:28;;;;;;;8.35;3.30;;;4.10;91.80;;;;;;5046420;28;20108;-77
2021/01/22 03:10:54;;;;;;;13.38;3.63;;;4.10;91.80;;;;;;5047356;28;20474;-77
2021/01/22 03:13:21;;;;;;;7.55;3.28;;;4.10;91.90;;;;;;5043385;28;20396;-78
2021/01/22 03:15:47;;;;;;;8.70;2.90;;;4.20;91.90;;;;;;5051292;28;20029;-78
2021/01/22 03:18:13;;;;;;;6.47;2.78;;;4.20;91.80;;;;;;5050918;28;20082;-77
2021/01/22 03:20:40;;;;;;;7.40;2.97;;;4.30;91.70;;;;;;5050486;28;20044;-77
2021/01/22 03:23:06;;;;;;;7.38;2.85;;;4.30;91.70;;;;;;5054008;28;20490;-77
2021/01/22 03:25:31;;;;;;;8.23;2.95;;;4.30;91.70;;;;;;5052864;28;20029;-77
2021/01/22 03:27:57;;;;;;;7.60;3.38;;;4.30;91.60;;;;;;5050466;28;20525;-77
2021/01/22 03:30:23;;;;;;;8.68;3.15;;;4.30;91.70;;;;;;5047580;28;20041;-77
2021/01/22 03:32:49;;;;;;;6.85;3.08;;;4.30;91.60;;;;;;5049948;28;20090;-77
2021/01/22 03:35:15;;;;;;;9.63;2.80;;;4.30;91.50;;;;;;5055582;28;20052;-77
2021/01/22 03:37:41;;;;;;;9.45;2.92;;;4.20;91.40;;;;;;5048556;28;20117;-77
2021/01/22 03:40:07;;;;;;;8.38;2.95;;;4.20;91.50;;;;;;5050595;28;20749;-77
2021/01/22 03:42:33;;;;;;;7.18;2.80;;;4.10;91.60;;;;;;5047862;28;20090;-77
2021/01/22 03:44:58;;;;;;;7.03;2.92;;;4.10;91.70;;;;;;5055178;28;20041;-77
2021/01/22 03:47:24;;;;;;;7.93;3.05;;;4.10;91.80;;;;;;5049874;28;20400;-78
2021/01/22 03:49:49;;;;;;;7.95;3.15;;;4.10;91.80;;;;;;5050401;28;20480;-78
2021/01/22 03:52:15;;;;;;;8.00;2.80;;;4.10;91.70;;;;;;5046329;28;20052;-78
2021/01/22 03:54:41;;;;;;;6.10;2.85;;;4.10;91.80;;;;;;5049620;28;20379;-77
2021/01/22 03:57:06;;;;;;;6.68;2.75;;;4.00;91.80;;;;;;5050413;28;20029;-77
2021/01/22 03:59:32;;;;;;;6.72;2.55;;;3.90;91.90;;;;;;5051364;28;20507;-77
2021/01/22 04:01:57;;;;;;;7.93;2.90;;;3.90;92.10;;;;;;5045814;28;20033;-77
2021/01/22 04:04:23;;;;;;;9.02;2.80;;;3.90;92.10;;;;;;5049418;28;20052;-77
2021/01/22 04:06:49;;;;;;;9.35;2.95;;;3.90;92.20;;;;;;5056958;28;20028;-77
2021/01/22 04:09:14;;;;;;;8.50;2.90;;;3.90;92.30;;;;;;5051182;28;20071;-77
2021/01/22 04:11:40;;;;;;;10.25;3.10;;;3.80;92.30;;;;;;5052239;28;20384;-77
2021/01/22 04:14:05;;;;;;;8.13;2.90;;;3.80;92.40;;;;;;5049634;28;20048;-78
2021/01/22 04:16:31;;;;;;;7.75;3.00;;;3.80;92.40;;;;;;5049415;28;20036;-77
2021/01/22 04:18:57;;;;;;;7.50;3.03;;;3.80;92.30;;;;;;5050216;28;20040;-77
2021/01/22 04:21:22;;;;;;;10.88;3.05;;;3.80;92.40;;;;;;5050592;28;20036;-77
2021/01/22 04:23:48;;;;;;;6.88;2.65;;;3.80;92.50;;;;;;5049840;28;20025;-77
2021/01/22 04:26:14;;;;;;;6.43;2.80;;;3.70;92.50;;;;;;5050135;28;20397;-77
2021/01/22 04:28:40;;;;;;;9.73;3.30;;;3.70;92.40;;;;;;5051710;28;20381;-77
2021/01/22 04:31:05;;;;;;;5.32;2.42;;;3.70;92.50;;;;;;5054437;28;20041;-77
2021/01/22 04:33:31;;;;;;;9.38;3.17;;;3.70;92.40;;;;;;5055144;28;20074;-77
2021/01/22 04:35:57;;;;;;;8.82;3.10;;;3.70;92.50;;;;;;5049673;28;20033;-77
2021/01/22 04:38:22;;;;;;;8.30;3.40;;;3.70;92.40;;;;;;5055843;28;20111;-78
2021/01/22 04:40:49;;;;;;;8.13;2.90;;;3.60;92.40;;;;;;5048823;28;20033;-78
2021/01/22 04:43:15;;;;;;;9.65;2.83;;;3.60;92.50;;;;;;5047250;28;20379;-77
2021/01/22 04:45:41;;;;;;;8.50;3.13;;;3.60;92.50;;;;;;5055012;28;20033;-76
2021/01/22 04:48:08;;;;;;;12.13;3.75;;;3.60;92.50;;;;;;5064048;28;20036;-77
2021/01/22 04:50:34;;;;;;;9.65;3.20;;;3.60;92.40;;;;;;5052636;28;20560;-77
2021/01/22 04:53:06;;;;;;;9.60;3.00;;;3.50;92.40;;;;;;5054021;28;20425;-77
2021/01/22 04:55:33;;;;;;;13.52;3.70;;;3.50;92.50;;;;;;5050391;28;20419;-77
2021/01/22 04:58:03;;;;;;;10.48;3.50;;;3.40;92.60;;;;;;5048558;28;20044;-77
2021/01/22 05:00:29;;;;;;;7.22;2.92;;;3.40;92.60;;;;;;5048965;28;21058;-77
2021/01/22 05:02:55;;;;;;;9.85;3.08;;;3.40;92.60;;;;;;5049029;28;20093;-77
2021/01/22 05:05:21;;;;;;;7.28;2.97;;;3.40;92.60;;;;;;5046432;28;20521;-77
2021/01/22 05:07:47;;;;;;;10.50;4.20;;;3.40;92.70;;;;;;5046358;28;20111;-78
2021/01/22 05:10:13;;;;;;;10.70;4.85;;;3.40;92.80;;;;;;5054007;28;20060;-77
2021/01/22 05:12:40;;;;;;;10.18;4.03;;;3.40;92.70;;;;;;5047954;28;20117;-77
2021/01/22 05:15:18;;;;;;;11.80;4.57;;;3.40;92.80;;;;;;5047934;28;20415;-77
2021/01/22 05:17:57;;;;;;;10.55;4.13;;;3.30;92.80;;;;;;5049694;28;20029;-77
2021/01/22 05:20:31;;;;;;;9.73;3.47;;;3.40;92.90;;;;;;5048847;28;20033;-77
2021/01/22 05:22:57;;;;;;;9.73;3.90;;;3.40;93.00;;;;;;5048944;28;20383;-78
2021/01/22 05:25:24;;;;;;;9.27;3.42;;;3.40;93.00;;;;;;5050367;28;20087;-78
2021/01/22 05:27:51;;;;;;;7.63;3.85;;;3.40;93.00;;;;;;5047324;28;20427;-77
2021/01/22 05:30:25;;;;;;;11.80;3.55;;;3.40;92.90;;;;;;5045970;28;20060;-78
2021/01/22 05:32:51;;;;;;;7.32;2.97;;;3.40;93.00;;;;;;5044779;28;20044;-78
2021/01/22 05:35:30;;;;;;;8.73;3.42;;;3.30;93.00;;;;;;5046400;28;20478;-77
2021/01/22 05:37:57;;;;;;;10.23;4.10;;;3.40;93.00;;;;;;5041961;28;20038;-77
2021/01/22 05:40:24;;;;;;;13.93;4.32;;;3.40;93.00;;;;;;5053132;28;20044;-77
2021/01/22 05:42:57;;;;;;;11.73;4.25;;;3.40;93.00;;;;;;5047539;28;20040;-77
2021/01/22 05:45:43;;;;;;;9.65;4.93;;;3.30;92.90;;;;;;5043060;28;20060;-77
2021/01/22 05:48:23;;;;;;;11.50;4.43;;;3.30;93.00;;;;;;5049757;28;20045;-77
2021/01/22 05:50:54;;;;;;;7.65;3.40;;;3.40;93.00;;;;;;5049477;28;20466;-77
2021/01/22 05:53:21;;;;;;;10.60;3.90;;;3.30;93.00;;;;;;5046605;28;20032;-77
2021/01/22 05:56:04;;;;;;;9.68;4.32;;;3.40;92.90;;;;;;5042650;28;20060;-77
2021/01/22 05:58:30;;;;;;;10.27;3.95;;;3.30;92.90;;;;;;5037043;28;20067;-77
2021/01/22 06:01:11;;;;;;;7.93;3.97;;;3.30;92.90;;;;;;5052742;28;20029;-77
2021/01/22 06:03:38;;;;;;;12.30;4.38;;;3.30;92.90;;;;;;5045255;28;20037;-77
2021/01/22 06:06:09;;;;;;;11.38;3.95;;;3.30;92.90;;;;;;5047440;28;20635;-76
2021/01/22 06:08:47;;;;;;;11.57;4.05;;;3.30;92.90;;;;;;5045220;28;20120;-77
2021/01/22 06:11:15;;;;;;;11.27;3.85;;;3.30;92.90;;;;;;5043964;28;20148;-77
2021/01/22 06:13:49;;;;;;;12.95;3.90;;;3.30;92.90;;;;;;5042374;28;20073;-77
2021/01/22 06:16:20;;;;;;;11.82;4.65;;;3.30;92.90;;;;;;5044902;28;20041;-77
2021/01/22 06:18:57;;;;;;;9.02;3.38;;;3.30;92.90;;;;;;5042221;28;20544;-76
2021/01/22 06:21:35;;;;;;;10.50;4.28;;;3.30;92.90;;;;;;5045794;28;20035;-77
2021/01/22 06:24:03;;;;;;;8.75;3.70;;;3.20;92.90;;;;;;5048402;28;20060;-78
2021/01/22 06:26:36;;;;;;;8.73;4.05;;;3.20;92.90;;;;;;5043052;28;20029;-76
2021/01/22 06:29:04;;;;;;;10.38;3.72;;;3.30;93.00;;;;;;5041990;28;20090;-77
2021/01/22 06:31:30;;;;;;;12.32;3.85;;;3.30;93.00;;;;;;5042946;28;20088;-77
2021/01/22 06:33:57;;;;;;;13.10;4.28;;;3.30;93.00;;;;;;5044923;28;20025;-77
2021/01/22 06:36:23;;;;;;;9.43;3.72;;;3.20;93.00;;;;;;5044605;28;20388;-77
2021/01/22 06:38:50;;;;;;;10.63;4.40;;;3.30;93.10;;;;;;5047664;28;20118;-77
2021/01/22 06:41:17;;;;;;;10.80;4.72;;;3.30;93.00;;;;;;5048821;28;20198;-77
2021/01/22 06:43:43;;;;;;;8.77;4.32;;;3.20;93.00;;;;;;5046600;28;20098;-77
2021/01/22 06:46:12;;;;;;;10.90;4.13;;;3.20;93.10;;;;;;5049242;28;20127;-77
2021/01/22 06:48:52;;;;;;;8.77;4.03;;;3.20;93.10;;;;;;5051350;28;20494;-78
2021/01/22 06:51:18;;;;;;;9.57;4.07;;;3.20;93.10;;;;;;5045108;28;20041;-77
2021/01/22 06:54:13;;;;;;;13.45;4.60;;;3.20;93.00;;;;;;5039938;28;20387;-78
2021/01/22 06:56:50;;;;;;;13.50;5.28;;;3.20;93.00;;;;;;5057946;28;20082;-78
2021/01/22 06:59:23;;;;;;;10.82;4.47;;;3.20;93.00;;;;;;5047869;28;20052;-78
2021/01/22 07:01:50;;;;;;;13.98;6.95;;;3.10;93.10;;;;;;5043965;28;20033;-77
2021/01/22 07:04:30;;;;;;;13.98;6.15;;;3.10;93.10;;;;;;5046002;28;20049;-77
2021/01/22 07:06:57;;;;;;;12.02;6.45;;;3.10;93.20;;;;;;5050097;28;20029;-78
2021/01/22 07:09:45;;;;;;;13.35;5.85;;;3.10;93.20;;;;;;5046449;28;20040;-78
2021/01/22 07:12:12;;;;;;;13.65;5.82;;;3.10;93.20;;;;;;5058366;28;20052;-77
2021/01/22 07:14:45;;;;;;;15.63;5.43;;;3.10;93.20;;;;;;5046453;28;20392;-78
2021/01/22 07:17:17;;;;;;;12.00;4.95;;;3.10;93.20;;;;;;5047593;28;20061;-76
2021/01/22 07:20:08;;;;;;;15.80;6.05;;;3.10;93.20;;;;;;5048526;28;20029;-77
2021/01/22 07:22:35;;;;;;;12.30;5.78;;;3.20;93.20;;;;;;5040544;28;20795;-78
2021/01/22 07:25:03;;;;;;;15.55;6.88;;;3.10;93.20;;;;;;5043729;28;20411;-77
2021/01/22 07:27:40;;;;;;;14.82;6.60;;;3.10;93.20;;;;;;5052651;28;20033;-77
2021/01/22 07:30:09;;;;;;;14.10;5.75;;;3.10;93.20;;;;;;5044399;28;20489;-79
2021/01/22 07:32:35;;;;;;;12.07;6.38;;;3.10;93.20;;;;;;5046690;28;20021;-76
2021/01/22 07:35:01;;;;;;;18.10;7.20;;;3.10;93.20;;;;;;5045272;28;20040;-79
2021/01/22 07:37:35;;;;;;;13.13;5.88;;;3.20;93.20;;;;;;5045537;28;20036;-78
2021/01/22 07:40:12;;;;;;;13.70;6.05;;;3.10;93.10;;;;;;5047226;28;20159;-77
2021/01/22 07:42:39;;;;;;;16.13;6.97;;;3.10;93.10;;;;;;5048962;28;20040;-77
2021/01/22 07:45:16;;;;;;;13.73;6.95;;;3.10;93.10;;;;;;5056776;28;20396;-77
2021/01/22 07:47:44;;;;;;;14.38;6.90;;;3.10;93.20;;;;;;5047060;28;20036;-77
2021/01/22 07:50:15;;;;;;;21.13;7.53;;;3.10;93.00;;;;;;5044676;28;20040;-77
2021/01/22 07:52:46;;;;;;;16.80;7.25;;;3.10;93.10;;;;;;5045368;28;20037;-77
2021/01/22 07:55:18;;;;;;;20.13;8.18;;;3.10;93.10;;;;;;5042131;28;20060;-77
2021/01/22 07:57:45;;;;;;;16.60;6.75;;;3.10;93.10;;;;;;5045535;28;20029;-77
2021/01/22 08:00:15;;;;;;;20.77;8.38;;;3.10;93.00;;;;;;5042873;28;20186;-77
2021/01/22 08:03:00;;;;;;;17.17;7.05;;;3.10;93.10;;;;;;5050598;28;20041;-77
2021/01/22 08:05:30;;;;;;;17.15;7.22;;;3.10;93.00;;;;;;5047179;28;20033;-78
2021/01/22 08:07:56;;;;;;;13.82;6.53;;;3.10;92.90;;;;;;5048561;28;20377;-78
2021/01/22 08:10:29;;;;;;;16.88;7.07;;;3.10;92.90;;;;;;5049348;28;20029;-77
2021/01/22 08:12:57;;;;;;;18.02;7.18;;;3.10;92.90;;;;;;5050877;28;20467;-73
2021/01/22 08:15:23;;;;;;;12.63;7.05;;;3.10;93.00;;;;;;5051201;28;20048;-72
2021/01/22 08:17:51;;;;;;;14.38;7.05;;;3.10;92.90;;;;;;5044157;28;20119;-72
2021/01/22 08:20:18;;;;;;;15.40;6.72;;;3.10;93.00;;;;;;5050784;28;20032;-73
2021/01/22 08:22:51;;;;;;;17.38;7.55;;;3.20;93.10;;;;;;5046955;28;20057;-72
2021/01/22 08:25:17;;;;;;;15.38;7.70;;;3.20;93.00;;;;;;5051230;28;21508;-72
2021/01/22 08:27:54;;;;;;;18.92;8.05;;;3.20;93.00;;;;;;5048996;28;20029;-74
2021/01/22 08:30:20;;;;;;;16.15;7.90;;;3.30;93.00;;;;;;5049328;28;20044;-74
2021/01/22 08:32:46;;;;;;;12.68;7.50;;;3.30;92.90;;;;;;5047967;28;20081;-73
2021/01/22 08:35:13;;;;;;;18.30;8.00;;;3.40;92.90;;;;;;5046929;28;20538;-73
2021/01/22 08:37:39;;;;;;;17.65;7.75;;;3.40;92.90;;;;;;5051323;28;20033;-73
2021/01/22 08:40:05;;;;;;;12.35;6.65;;;3.40;92.70;;;;;;5049589;28;20033;-73
2021/01/22 08:42:32;;;;;;;18.85;7.68;;;3.50;92.60;;;;;;5047681;28;20053;-75
2021/01/22 08:44:58;;;;;;;12.90;7.13;;;3.50;92.30;;;;;;5066828;28;20028;-76
2021/01/22 08:47:25;;;;;;;16.80;7.72;;;3.60;92.30;;;;;;5074979;28;20021;-74
2021/01/22 08:50:04;;;;;;;14.63;7.20;;;3.60;92.20;;;;;;5054018;28;20029;-73
2021/01/22 08:52:30;;;;;;;15.32;7.00;;;3.60;92.00;;;;;;5036824;28;20049;-74
2021/01/22 08:54:58;;;;;;;18.02;7.60;;;3.60;91.90;;;;;;5049969;28;20029;-75
2021/01/22 08:57:28;;;;;;;18.90;8.65;;;3.70;91.80;;;;;;5055084;28;20390;-76
2021/01/22 08:59:59;;;;;;;14.43;8.18;;;3.70;91.80;;;;;;5051704;28;20041;-73
2021/01/22 09:02:54;;;;;;;13.18;7.90;;;3.80;91.70;;;;;;5047367;28;20037;-74
2021/01/22 09:05:20;;;;;;;12.80;7.27;;;3.90;91.70;;;;;;5041451;28;20113;-74
2021/01/22 09:07:46;;;;;;;12.73;7.38;;;4.00;91.60;;;;;;5050379;28;20310;-74
2021/01/22 09:10:21;;;;;;;14.35;7.20;;;4.10;91.50;;;;;;5049644;28;20099;-75
2021/01/22 09:12:47;;;;;;;15.63;8.70;;;4.10;91.30;;;;;;5046291;28;20033;-75
2021/01/22 09:15:16;;;;;;;18.15;7.93;;;4.20;91.20;;;;;;5050125;28;20040;-74
2021/01/22 09:17:49;;;;;;;15.52;7.68;;;4.30;90.90;;;;;;5048567;28;20040;-75
2021/01/22 09:20:20;;;;;;;15.07;7.40;;;4.40;90.70;;;;;;5047229;28;20048;-74
2021/01/22 09:22:54;;;;;;;17.33;8.18;;;4.40;90.50;;;;;;5048104;28;20028;-73
2021/01/22 09:25:26;;;;;;;19.75;7.80;;;4.60;90.40;;;;;;5047825;28;20090;-73
2021/01/22 09:27:51;;;;;;;20.60;8.20;;;4.70;90.10;;;;;;5049185;28;20052;-73
2021/01/22 09:30:20;;;;;;;13.32;7.30;;;4.80;89.60;;;;;;5047433;28;20037;-75
2021/01/22 09:32:48;;;;;;;18.77;7.07;;;4.90;89.50;;;;;;5047663;28;20044;-74
2021/01/22 09:35:14;;;;;;;14.43;7.35;;;4.90;89.10;;;;;;5049206;28;20523;-74
2021/01/22 09:37:40;;;;;;;17.88;8.32;;;4.90;88.90;;;;;;5050539;28;20381;-73
2021/01/22 09:40:07;;;;;;;15.50;7.60;;;5.00;88.80;;;;;;5050899;28;20045;-74
2021/01/22 09:42:34;;;;;;;15.70;7.30;;;5.10;88.80;;;;;;5058063;28;20029;-73
2021/01/22 09:44:59;;;;;;;13.30;7.38;;;5.10;88.60;;;;;;5053613;28;20083;-73
2021/01/22 09:47:25;;;;;;;15.18;7.82;;;5.10;88.60;;;;;;5047829;28;20647;-73
2021/01/22 09:49:51;;;;;;;14.70;6.75;;;5.10;88.50;;;;;;5048498;28;20033;-74
2021/01/22 09:52:16;;;;;;;17.85;7.72;;;5.30;88.50;;;;;;5045288;28;20041;-75
2021/01/22 09:54:43;;;;;;;15.13;6.72;;;5.30;88.40;;;;;;5049115;28;20123;-76
2021/01/22 09:57:09;;;;;;;16.52;7.22;;;5.40;88.50;;;;;;5048890;28;20062;-74
2021/01/22 09:59:35;;;;;;;14.05;7.60;;;5.50;87.90;;;;;;5026150;28;20095;-77
2021/01/22 10:02:00;;;;;;;17.67;7.82;;;5.60;87.60;;;;;;5023611;28;20074;-75
2021/01/22 10:04:26;;;;;;;17.38;8.10;;;5.60;87.50;;;;;;5030530;28;20029;-77
2021/01/22 10:06:52;;;;;;;16.10;8.18;;;5.60;87.30;;;;;;5036123;28;20037;-73
2021/01/22 10:09:17;;;;;;;14.07;7.70;;;5.70;87.30;;;;;;5031504;28;20071;-75
2021/01/22 10:11:43;;;;;;;16.15;9.23;;;5.80;87.30;;;;;;5037930;28;20593;-74
2021/01/22 10:14:09;;;;;;;14.02;8.10;;;5.80;87.30;;;;;;5042901;28;20036;-76
2021/01/22 10:16:35;;;;;;;17.60;8.00;;;5.90;87.30;;;;;;5039543;28;20025;-73
2021/01/22 10:19:01;;;;;;;16.63;7.65;;;6.00;87.40;;;;;;5037863;28;20037;-74
2021/01/22 10:21:27;;;;;;;15.38;7.75;;;6.10;87.30;;;;;;5041388;28;20478;-74
2021/01/22 10:23:53;;;;;;;15.60;7.30;;;6.30;86.80;;;;;;5048067;28;20040;-73
2021/01/22 10:26:21;;;;;;;14.82;7.50;;;6.50;86.40;;;;;;5040773;28;20037;-73
2021/01/22 10:28:47;;;;;;;13.88;6.38;;;6.60;86.00;;;;;;5037808;28;20040;-74
2021/01/22 10:31:13;;;;;;;17.85;6.90;;;6.60;85.60;;;;;;5040334;28;20053;-76
2021/01/22 10:33:39;;;;;;;15.48;7.57;;;6.80;85.30;;;;;;5038427;28;20051;-73
2021/01/22 10:36:06;;;;;;;19.75;8.15;;;7.00;84.30;;;;;;5037364;28;20083;-77
2021/01/22 10:38:32;;;;;;;13.68;6.60;;;7.00;84.30;;;;;;5040405;28;20037;-74
2021/01/22 10:40:59;;;;;;;14.77;7.35;;;7.10;84.20;;;;;;5036347;28;20038;-73
2021/01/22 10:43:25;;;;;;;18.08;7.35;;;7.10;83.70;;;;;;5036368;28;20037;-74
2021/01/22 10:45:51;;;;;;;12.93;5.88;;;7.00;83.50;;;;;;5035719;28;20045;-74
2021/01/22 10:48:17;;;;;;;14.25;5.78;;;7.00;83.20;;;;;;5040830;28;20033;-76
2021/01/22 10:50:44;;;;;;;18.83;7.03;;;6.80;83.10;;;;;;5039999;28;20041;-73
2021/01/22 10:53:10;;;;;;;14.65;7.10;;;6.80;83.00;;;;;;5033301;28;20126;-74
2021/01/22 10:55:35;;;;;;;17.10;6.70;;;6.70;83.60;;;;;;5039402;28;20389;-74
2021/01/22 10:58:01;;;;;;;15.05;6.78;;;6.80;83.30;;;;;;5032918;28;20037;-76
2021/01/22 11:00:27;;;;;;;16.10;7.07;;;6.90;83.60;;;;;;5039522;28;20476;-74
2021/01/22 11:02:53;;;;;;;14.75;7.18;;;6.90;83.30;;;;;;5041286;28;20025;-73
2021/01/22 11:05:18;;;;;;;13.95;6.82;;;7.10;83.20;;;;;;5044082;28;20040;-75
2021/01/22 11:07:44;;;;;;;12.63;6.22;;;7.10;82.50;;;;;;5045236;28;20063;-76
2021/01/22 11:10:10;;;;;;;13.55;6.30;;;7.10;83.40;;;;;;5044076;28;20041;-76
2021/01/22 11:12:36;;;;;;;15.00;7.13;;;7.10;81.80;;;;;;5041895;28;20044;-74
2021/01/22 11:15:02;;;;;;;15.63;6.65;;;7.20;82.10;;;;;;5025423;28;20060;-73
2021/01/22 11:17:28;;;;;;;13.65;6.22;;;7.20;82.20;;;;;;5044449;28;20387;-77
2021/01/22 11:19:53;;;;;;;13.05;6.00;;;7.30;81.90;;;;;;5035719;28;20029;-74
2021/01/22 11:22:19;;;;;;;17.33;6.88;;;7.20;81.60;;;;;;5035999;28;20065;-77
2021/01/22 11:24:45;;;;;;;18.55;7.45;;;7.30;81.90;;;;;;5036945;28;20032;-74
2021/01/22 11:27:10;;;;;;;11.80;6.18;;;7.30;81.80;;;;;;5039840;28;20465;-79
2021/01/22 11:29:39;;;;;;;13.15;5.80;;;7.30;82.20;;;;;;5038058;28;20546;-74
2021/01/22 11:32:05;;;;;;;11.90;5.53;;;7.40;82.00;;;;;;5033333;28;20107;-75
2021/01/22 11:34:34;;;;;;;16.35;6.38;;;7.60;81.60;;;;;;5037119;28;20033;-74
2021/01/22 11:37:00;;;;;;;14.30;6.05;;;7.60;81.00;;;;;;5050300;28;20035;-74
2021/01/22 11:39:26;;;;;;;11.93;5.50;;;7.60;81.10;;;;;;5049396;28;20033;-75
2021/01/22 11:41:53;;;;;;;15.38;5.75;;;7.60;80.60;;;;;;5048618;28;20064;-75
2021/01/22 11:44:18;;;;;;;14.77;5.90;;;7.80;80.60;;;;;;5046959;28;20047;-75
2021/01/22 11:46:44;;;;;;;15.35;6.05;;;7.80;81.00;;;;;;5041519;28;20041;-75
2021/01/22 11:49:10;;;;;;;12.27;5.68;;;7.80;80.20;;;;;;5045448;28;20112;-75
2021/01/22 11:51:36;;;;;;;14.98;5.07;;;8.00;80.40;;;;;;5043662;28;20381;-75
2021/01/22 11:54:04;;;;;;;13.23;5.30;;;8.10;79.80;;;;;;5048326;28;20041;-74
2021/01/22 11:56:30;;;;;;;15.63;5.60;;;8.10;78.90;;;;;;5048990;28;20029;-74
2021/01/22 11:58:56;;;;;;;13.82;5.40;;;8.00;78.90;;;;;;5051524;28;20053;-74
2021/01/22 12:01:21;;;;;;;13.73;5.47;;;7.90;79.00;;;;;;5044111;28;20025;-74
2021/01/22 12:03:47;;;;;;;11.90;5.38;;;8.00;78.80;;;;;;5050444;28;20040;-75
2021/01/22 12:06:13;;;;;;;11.18;4.90;;;8.00;79.30;;;;;;5048766;28;20076;-74
2021/01/22 12:08:39;;;;;;;15.95;5.35;;;8.10;79.00;;;;;;5050125;28;20052;-73
2021/01/22 12:11:05;;;;;;;14.63;5.38;;;8.40;77.70;;;;;;5052671;28;20040;-74
2021/01/22 12:13:30;;;;;;;14.55;5.65;;;8.50;77.50;;;;;;5048646;28;20040;-73
2021/01/22 12:15:56;;;;;;;14.93;5.53;;;8.40;76.20;;;;;;5050424;28;20114;-75
2021/01/22 12:18:22;;;;;;;11.27;5.35;;;8.40;77.40;;;;;;5049135;28;20041;-74
2021/01/22 12:20:47;;;;;;;17.05;5.30;;;8.40;77.20;;;;;;5047528;28;20036;-73
2021/01/22 12:23:13;;;;;;;12.77;4.93;;;8.40;76.60;;;;;;5051802;28;20041;-77
2021/01/22 12:25:45;;;;;;;15.30;5.70;;;8.60;76.00;;;;;;5047712;28;20582;-76
2021/01/22 12:28:13;;;;;;;13.70;5.22;;;8.60;76.10;;;;;;5048740;28;20048;-76
2021/01/22 12:30:39;;;;;;;12.95;5.20;;;8.50;75.30;;;;;;5062257;28;20068;-74
2021/01/22 12:33:05;;;;;;;12.23;5.30;;;8.40;76.00;;;;;;5062145;28;20040;-74
2021/01/22 12:35:30;;;;;;;13.23;4.70;;;8.40;75.70;;;;;;5047925;28;20155;-73
2021/01/22 12:37:56;;;;;;;16.95;5.13;;;8.20;75.40;;;;;;5049316;28;20021;-73
2021/01/22 12:40:22;;;;;;;12.35;5.70;;;8.20;76.00;;;;;;5053772;28;20032;-73
2021/01/22 12:42:47;;;;;;;15.50;5.47;;;8.10;76.30;;;;;;5048375;28;20036;-73
2021/01/22 12:45:13;;;;;;;14.35;5.10;;;8.20;76.90;;;;;;5040396;28;20407;-74
2021/01/22 12:47:39;;;;;;;15.05;5.18;;;8.30;76.80;;;;;;5039196;28;20041;-76
2021/01/22 12:50:05;;;;;;;11.18;4.82;;;8.30;76.30;;;;;;5042367;28;20115;-76
2021/01/22 12:52:31;;;;;;;11.15;4.65;;;8.10;76.40;;;;;;5040566;28;20057;-74
2021/01/22 12:54:57;;;;;;;13.73;5.13;;;7.80;77.50;;;;;;5041708;28;20099;-74